sensor_id;sensor_type;location;lat;lon;timestamp;P1;durP1;ratioP1;P2;durP2;ratioP2
65751;SDS011;52486;51.098;13.770;2023-02-18T00:00:11;0.52;;;0.52;;
65751;SDS011;52486;51.098;13.770;2023-02-18T00:02:39;0.93;;;0.80;;
65751;SDS011;52486;51.098;13.770;2023-02-18T00:05:05;2.45;;;0.85;;
65751;SDS011;52486;51.098;13.770;2023-02-18T00:07:34;0.70;;;0.68;;
65751;SDS011;52486;51.098;13.770;2023-02-18T00:10:00;1.02;;;0.65;;
65751;SDS011;52486;51.098;13.770;2023-02-18T00:12:27;1.55;;;0.82;;
65751;SDS011;52486;51.098;13.770;2023-02-18T00:14:54;0.60;;;0.60;;
65751;SDS011;52486;51.098;13.770;2023-02-18T00:17:19;1.10;;;0.90;;
65751;SDS011;52486;51.098;13.770;2023-02-18T00:19:45;0.68;;;0.68;;
65751;SDS011;52486;51.098;13.770;2023-02-18T00:22:10;0.70;;;0.70;;
65751;SDS011;52486;51.098;13.770;2023-02-18T00:24:37;0.70;;;0.70;;
65751;SDS011;52486;51.098;13.770;2023-02-18T00:27:03;0.75;;;0.73;;
65751;SDS011;52486;51.098;13.770;2023-02-18T00:29:28;0.65;;;0.65;;
65751;SDS011;52486;51.098;13.770;2023-02-18T00:31:54;1.80;;;0.80;;
65751;SDS011;52486;51.098;13.770;2023-02-18T00:34:20;0.68;;;0.68;;
65751;SDS011;52486;51.098;13.770;2023-02-18T00:36:45;0.98;;;0.77;;
65751;SDS011;52486;51.098;13.770;2023-02-18T00:39:11;0.65;;;0.63;;
65751;SDS011;52486;51.098;13.770;2023-02-18T00:41:37;0.50;;;0.50;;
65751;SDS011;52486;51.098;13.770;2023-02-18T00:44:04;0.60;;;0.60;;
65751;SDS011;52486;51.098;13.770;2023-02-18T00:46:31;0.45;;;0.45;;
65751;SDS011;52486;51.098;13.770;2023-02-18T00:48:57;1.02;;;0.63;;
65751;SDS011;52486;51.098;13.770;2023-02-18T00:51:23;0.70;;;0.70;;
65751;SDS011;52486;51.098;13.770;2023-02-18T00:53:49;0.60;;;0.60;;
65751;SDS011;52486;51.098;13.770;2023-02-18T00:56:15;0.80;;;0.80;;
65751;SDS011;52486;51.098;13.770;2023-02-18T00:58:41;0.57;;;0.57;;
65751;SDS011;52486;51.098;13.770;2023-02-18T01:01:08;1.00;;;0.52;;
65751;SDS011;52486;51.098;13.770;2023-02-18T01:03:34;0.60;;;0.60;;
65751;SDS011;52486;51.098;13.770;2023-02-18T01:06:01;0.50;;;0.50;;
65751;SDS011;52486;51.098;13.770;2023-02-18T01:08:27;0.60;;;0.60;;
65751;SDS011;52486;51.098;13.770;2023-02-18T01:10:54;0.45;;;0.45;;
65751;SDS011;52486;51.098;13.770;2023-02-18T01:13:21;0.70;;;0.60;;
65751;SDS011;52486;51.098;13.770;2023-02-18T01:15:47;0.52;;;0.50;;
65751;SDS011;52486;51.098;13.770;2023-02-18T01:18:13;0.50;;;0.50;;
65751;SDS011;52486;51.098;13.770;2023-02-18T01:20:40;0.40;;;0.40;;
65751;SDS011;52486;51.098;13.770;2023-02-18T01:23:06;0.38;;;0.38;;
65751;SDS011;52486;51.098;13.770;2023-02-18T01:25:32;1.08;;;0.50;;
65751;SDS011;52486;51.098;13.770;2023-02-18T01:27:58;0.60;;;0.60;;
65751;SDS011;52486;51.098;13.770;2023-02-18T01:30:24;0.60;;;0.57;;
65751;SDS011;52486;51.098;13.770;2023-02-18T01:32:50;0.43;;;0.43;;
65751;SDS011;52486;51.098;13.770;2023-02-18T01:35:17;0.50;;;0.47;;
65751;SDS011;52486;51.098;13.770;2023-02-18T01:37:44;0.63;;;0.63;;
65751;SDS011;52486;51.098;13.770;2023-02-18T01:40:15;1.33;;;0.63;;
65751;SDS011;52486;51.098;13.770;2023-02-18T01:42:42;0.47;;;0.47;;
65751;SDS011;52486;51.098;13.770;2023-02-18T01:48:41;0.60;;;0.60;;
65751;SDS011;52486;51.098;13.770;2023-02-18T01:50:53;0.63;;;0.40;;
65751;SDS011;52486;51.098;13.770;2023-02-18T01:53:32;0.60;;;0.60;;
65751;SDS011;52486;51.098;13.770;2023-02-18T01:56:04;0.70;;;0.52;;
65751;SDS011;52486;51.098;13.770;2023-02-18T01:58:35;0.47;;;0.47;;
65751;SDS011;52486;51.098;13.770;2023-02-18T02:01:01;0.47;;;0.47;;
65751;SDS011;52486;51.098;13.770;2023-02-18T02:03:27;0.63;;;0.60;;
65751;SDS011;52486;51.098;13.770;2023-02-18T02:05:53;0.98;;;0.50;;
65751;SDS011;52486;51.098;13.770;2023-02-18T02:08:18;0.52;;;0.50;;
65751;SDS011;52486;51.098;13.770;2023-02-18T02:16:21;0.90;;;0.50;;
65751;SDS011;52486;51.098;13.770;2023-02-18T02:38:50;0.85;;;0.60;;
65751;SDS011;52486;51.098;13.770;2023-02-18T02:41:39;0.68;;;0.50;;
65751;SDS011;52486;51.098;13.770;2023-02-18T02:44:37;0.30;;;0.30;;
65751;SDS011;52486;51.098;13.770;2023-02-18T02:47:10;0.30;;;0.30;;
65751;SDS011;52486;51.098;13.770;2023-02-18T02:52:16;0.60;;;0.43;;
65751;SDS011;52486;51.098;13.770;2023-02-18T02:54:47;0.40;;;0.40;;
65751;SDS011;52486;51.098;13.770;2023-02-18T02:59:43;0.57;;;0.50;;
65751;SDS011;52486;51.098;13.770;2023-02-18T03:04:46;0.50;;;0.50;;
65751;SDS011;52486;51.098;13.770;2023-02-18T03:07:36;0.82;;;0.50;;
65751;SDS011;52486;51.098;13.770;2023-02-18T03:10:43;0.50;;;0.50;;
65751;SDS011;52486;51.098;13.770;2023-02-18T03:13:50;1.02;;;0.47;;
65751;SDS011;52486;51.098;13.770;2023-02-18T03:16:25;0.80;;;0.50;;
65751;SDS011;52486;51.098;13.770;2023-02-18T03:21:26;0.30;;;0.30;;
65751;SDS011;52486;51.098;13.770;2023-02-18T03:24:42;0.60;;;0.50;;
65751;SDS011;52486;51.098;13.770;2023-02-18T03:27:05;0.40;;;0.40;;
65751;SDS011;52486;51.098;13.770;2023-02-18T03:29:42;0.68;;;0.50;;
65751;SDS011;52486;51.098;13.770;2023-02-18T03:32:10;0.63;;;0.63;;
65751;SDS011;52486;51.098;13.770;2023-02-18T03:34:40;0.30;;;0.30;;
65751;SDS011;52486;51.098;13.770;2023-02-18T03:37:09;0.30;;;0.30;;
65751;SDS011;52486;51.098;13.770;2023-02-18T03:39:38;0.65;;;0.50;;
65751;SDS011;52486;51.098;13.770;2023-02-18T03:42:08;0.40;;;0.30;;
65751;SDS011;52486;51.098;13.770;2023-02-18T03:44:33;0.40;;;0.30;;
65751;SDS011;52486;51.098;13.770;2023-02-18T03:46:59;0.45;;;0.40;;
65751;SDS011;52486;51.098;13.770;2023-02-18T03:49:25;0.40;;;0.40;;
65751;SDS011;52486;51.098;13.770;2023-02-18T03:51:51;0.30;;;0.30;;
65751;SDS011;52486;51.098;13.770;2023-02-18T03:54:17;0.40;;;0.40;;
65751;SDS011;52486;51.098;13.770;2023-02-18T03:56:43;0.40;;;0.40;;
65751;SDS011;52486;51.098;13.770;2023-02-18T03:59:08;0.32;;;0.30;;
65751;SDS011;52486;51.098;13.770;2023-02-18T04:01:35;0.40;;;0.40;;
65751;SDS011;52486;51.098;13.770;2023-02-18T04:04:00;0.40;;;0.40;;
65751;SDS011;52486;51.098;13.770;2023-02-18T04:06:27;0.30;;;0.30;;
65751;SDS011;52486;51.098;13.770;2023-02-18T04:08:53;0.40;;;0.40;;
65751;SDS011;52486;51.098;13.770;2023-02-18T04:11:18;0.30;;;0.30;;
65751;SDS011;52486;51.098;13.770;2023-02-18T04:13:44;0.30;;;0.30;;
65751;SDS011;52486;51.098;13.770;2023-02-18T04:16:10;0.70;;;0.50;;
65751;SDS011;52486;51.098;13.770;2023-02-18T04:18:35;0.55;;;0.55;;
65751;SDS011;52486;51.098;13.770;2023-02-18T04:21:01;0.40;;;0.40;;
65751;SDS011;52486;51.098;13.770;2023-02-18T04:23:27;0.30;;;0.30;;
65751;SDS011;52486;51.098;13.770;2023-02-18T04:25:52;0.50;;;0.50;;
65751;SDS011;52486;51.098;13.770;2023-02-18T04:28:18;0.47;;;0.40;;
65751;SDS011;52486;51.098;13.770;2023-02-18T04:30:45;0.57;;;0.47;;
65751;SDS011;52486;51.098;13.770;2023-02-18T04:33:11;0.40;;;0.40;;
65751;SDS011;52486;51.098;13.770;2023-02-18T04:35:37;0.50;;;0.40;;
65751;SDS011;52486;51.098;13.770;2023-02-18T04:38:05;0.57;;;0.30;;
65751;SDS011;52486;51.098;13.770;2023-02-18T04:40:31;1.13;;;0.50;;
65751;SDS011;52486;51.098;13.770;2023-02-18T04:42:57;0.40;;;0.30;;
65751;SDS011;52486;51.098;13.770;2023-02-18T04:45:24;0.75;;;0.47;;
65751;SDS011;52486;51.098;13.770;2023-02-18T04:47:50;0.55;;;0.50;;
65751;SDS011;52486;51.098;13.770;2023-02-18T04:50:16;0.30;;;0.30;;
65751;SDS011;52486;51.098;13.770;2023-02-18T04:52:42;0.57;;;0.40;;
65751;SDS011;52486;51.098;13.770;2023-02-18T04:55:07;0.30;;;0.30;;
65751;SDS011;52486;51.098;13.770;2023-02-18T04:57:33;0.40;;;0.40;;
65751;SDS011;52486;51.098;13.770;2023-02-18T04:59:59;0.30;;;0.30;;
65751;SDS011;52486;51.098;13.770;2023-02-18T05:02:24;0.30;;;0.30;;
65751;SDS011;52486;51.098;13.770;2023-02-18T05:04:50;0.43;;;0.43;;
65751;SDS011;52486;51.098;13.770;2023-02-18T05:07:15;0.40;;;0.40;;
65751;SDS011;52486;51.098;13.770;2023-02-18T05:09:41;0.32;;;0.32;;
65751;SDS011;52486;51.098;13.770;2023-02-18T05:12:07;0.45;;;0.43;;
65751;SDS011;52486;51.098;13.770;2023-02-18T05:14:32;0.40;;;0.40;;
65751;SDS011;52486;51.098;13.770;2023-02-18T05:16:58;0.45;;;0.35;;
65751;SDS011;52486;51.098;13.770;2023-02-18T05:19:24;0.90;;;0.50;;
65751;SDS011;52486;51.098;13.770;2023-02-18T05:21:49;0.88;;;0.40;;
65751;SDS011;52486;51.098;13.770;2023-02-18T05:24:15;1.10;;;0.40;;
65751;SDS011;52486;51.098;13.770;2023-02-18T05:26:40;0.28;;;0.28;;
65751;SDS011;52486;51.098;13.770;2023-02-18T05:29:06;0.80;;;0.50;;
65751;SDS011;52486;51.098;13.770;2023-02-18T05:31:32;0.30;;;0.30;;
65751;SDS011;52486;51.098;13.770;2023-02-18T05:33:57;0.30;;;0.30;;
65751;SDS011;52486;51.098;13.770;2023-02-18T05:36:23;0.30;;;0.30;;
65751;SDS011;52486;51.098;13.770;2023-02-18T05:38:49;0.45;;;0.32;;
65751;SDS011;52486;51.098;13.770;2023-02-18T05:41:15;0.25;;;0.20;;
65751;SDS011;52486;51.098;13.770;2023-02-18T05:43:40;0.32;;;0.32;;
65751;SDS011;52486;51.098;13.770;2023-02-18T05:46:25;0.40;;;0.20;;
65751;SDS011;52486;51.098;13.770;2023-02-18T05:48:50;1.50;;;0.40;;
65751;SDS011;52486;51.098;13.770;2023-02-18T05:51:16;0.52;;;0.40;;
65751;SDS011;52486;51.098;13.770;2023-02-18T05:53:42;1.08;;;0.38;;
65751;SDS011;52486;51.098;13.770;2023-02-18T05:56:07;0.25;;;0.25;;
65751;SDS011;52486;51.098;13.770;2023-02-18T05:58:33;0.70;;;0.40;;
65751;SDS011;52486;51.098;13.770;2023-02-18T06:00:59;0.75;;;0.40;;
65751;SDS011;52486;51.098;13.770;2023-02-18T06:03:24;0.32;;;0.30;;
65751;SDS011;52486;51.098;13.770;2023-02-18T06:05:50;0.50;;;0.50;;
65751;SDS011;52486;51.098;13.770;2023-02-18T06:08:16;0.32;;;0.32;;
65751;SDS011;52486;51.098;13.770;2023-02-18T06:10:44;0.70;;;0.30;;
65751;SDS011;52486;51.098;13.770;2023-02-18T06:13:09;0.95;;;0.40;;
65751;SDS011;52486;51.098;13.770;2023-02-18T06:15:35;0.35;;;0.35;;
65751;SDS011;52486;51.098;13.770;2023-02-18T06:18:01;0.30;;;0.20;;
65751;SDS011;52486;51.098;13.770;2023-02-18T06:20:27;0.90;;;0.30;;
65751;SDS011;52486;51.098;13.770;2023-02-18T06:22:53;0.68;;;0.40;;
65751;SDS011;52486;51.098;13.770;2023-02-18T06:25:18;0.60;;;0.40;;
65751;SDS011;52486;51.098;13.770;2023-02-18T06:27:44;0.40;;;0.30;;
65751;SDS011;52486;51.098;13.770;2023-02-18T06:30:09;0.75;;;0.40;;
65751;SDS011;52486;51.098;13.770;2023-02-18T06:32:35;0.52;;;0.38;;
65751;SDS011;52486;51.098;13.770;2023-02-18T06:35:01;0.55;;;0.30;;
65751;SDS011;52486;51.098;13.770;2023-02-18T06:37:27;0.30;;;0.30;;
65751;SDS011;52486;51.098;13.770;2023-02-18T06:39:53;0.60;;;0.30;;
65751;SDS011;52486;51.098;13.770;2023-02-18T06:42:18;0.52;;;0.30;;
65751;SDS011;52486;51.098;13.770;2023-02-18T06:44:44;0.30;;;0.30;;
65751;SDS011;52486;51.098;13.770;2023-02-18T06:47:10;0.35;;;0.30;;
65751;SDS011;52486;51.098;13.770;2023-02-18T06:49:35;1.05;;;0.45;;
65751;SDS011;52486;51.098;13.770;2023-02-18T06:52:03;0.40;;;0.40;;
65751;SDS011;52486;51.098;13.770;2023-02-18T06:54:29;0.22;;;0.22;;
65751;SDS011;52486;51.098;13.770;2023-02-18T06:56:54;0.47;;;0.22;;
65751;SDS011;52486;51.098;13.770;2023-02-18T06:59:20;0.45;;;0.35;;
65751;SDS011;52486;51.098;13.770;2023-02-18T07:01:46;0.35;;;0.30;;
65751;SDS011;52486;51.098;13.770;2023-02-18T07:04:11;0.20;;;0.20;;
65751;SDS011;52486;51.098;13.770;2023-02-18T07:06:37;0.20;;;0.20;;
65751;SDS011;52486;51.098;13.770;2023-02-18T07:09:03;0.32;;;0.28;;
65751;SDS011;52486;51.098;13.770;2023-02-18T07:11:30;0.88;;;0.50;;
65751;SDS011;52486;51.098;13.770;2023-02-18T07:13:56;1.00;;;0.30;;
65751;SDS011;52486;51.098;13.770;2023-02-18T07:16:21;0.32;;;0.32;;
65751;SDS011;52486;51.098;13.770;2023-02-18T07:18:47;0.40;;;0.40;;
65751;SDS011;52486;51.098;13.770;2023-02-18T07:21:13;1.88;;;0.40;;
65751;SDS011;52486;51.098;13.770;2023-02-18T07:23:38;0.30;;;0.30;;
65751;SDS011;52486;51.098;13.770;2023-02-18T07:26:05;0.35;;;0.30;;
65751;SDS011;52486;51.098;13.770;2023-02-18T07:28:32;0.20;;;0.20;;
65751;SDS011;52486;51.098;13.770;2023-02-18T07:30:58;0.85;;;0.40;;
65751;SDS011;52486;51.098;13.770;2023-02-18T07:33:24;0.28;;;0.28;;
65751;SDS011;52486;51.098;13.770;2023-02-18T07:35:53;0.45;;;0.32;;
65751;SDS011;52486;51.098;13.770;2023-02-18T07:38:20;0.50;;;0.35;;
65751;SDS011;52486;51.098;13.770;2023-02-18T07:40:46;0.30;;;0.30;;
65751;SDS011;52486;51.098;13.770;2023-02-18T07:43:12;0.55;;;0.47;;
65751;SDS011;52486;51.098;13.770;2023-02-18T07:45:38;0.30;;;0.30;;
65751;SDS011;52486;51.098;13.770;2023-02-18T07:48:03;0.35;;;0.35;;
65751;SDS011;52486;51.098;13.770;2023-02-18T07:50:29;0.20;;;0.20;;
65751;SDS011;52486;51.098;13.770;2023-02-18T07:53:08;0.23;;;0.23;;
65751;SDS011;52486;51.098;13.770;2023-02-18T07:55:35;1.23;;;0.38;;
65751;SDS011;52486;51.098;13.770;2023-02-18T07:58:26;0.43;;;0.40;;
65751;SDS011;52486;51.098;13.770;2023-02-18T08:00:56;0.80;;;0.30;;
65751;SDS011;52486;51.098;13.770;2023-02-18T08:03:29;0.50;;;0.40;;
65751;SDS011;52486;51.098;13.770;2023-02-18T08:05:55;0.40;;;0.32;;
65751;SDS011;52486;51.098;13.770;2023-02-18T08:08:23;0.47;;;0.40;;
65751;SDS011;52486;51.098;13.770;2023-02-18T08:10:51;0.30;;;0.30;;
65751;SDS011;52486;51.098;13.770;2023-02-18T08:13:18;0.32;;;0.30;;
65751;SDS011;52486;51.098;13.770;2023-02-18T08:15:44;0.25;;;0.25;;
65751;SDS011;52486;51.098;13.770;2023-02-18T08:18:14;0.90;;;0.22;;
65751;SDS011;52486;51.098;13.770;2023-02-18T08:20:45;0.43;;;0.30;;
65751;SDS011;52486;51.098;13.770;2023-02-18T08:23:12;0.20;;;0.20;;
65751;SDS011;52486;51.098;13.770;2023-02-18T08:25:39;0.40;;;0.30;;
65751;SDS011;52486;51.098;13.770;2023-02-18T08:28:05;0.15;;;0.15;;
65751;SDS011;52486;51.098;13.770;2023-02-18T08:30:30;0.30;;;0.30;;
65751;SDS011;52486;51.098;13.770;2023-02-18T08:32:56;0.40;;;0.40;;
65751;SDS011;52486;51.098;13.770;2023-02-18T08:35:22;0.32;;;0.32;;
65751;SDS011;52486;51.098;13.770;2023-02-18T08:37:48;0.47;;;0.30;;
65751;SDS011;52486;51.098;13.770;2023-02-18T08:40:14;0.65;;;0.30;;
65751;SDS011;52486;51.098;13.770;2023-02-18T08:42:40;0.30;;;0.28;;
65751;SDS011;52486;51.098;13.770;2023-02-18T08:45:05;0.57;;;0.50;;
65751;SDS011;52486;51.098;13.770;2023-02-18T08:47:32;0.22;;;0.20;;
65751;SDS011;52486;51.098;13.770;2023-02-18T08:49:57;0.40;;;0.40;;
65751;SDS011;52486;51.098;13.770;2023-02-18T08:52:23;0.60;;;0.30;;
65751;SDS011;52486;51.098;13.770;2023-02-18T08:54:49;0.47;;;0.22;;
65751;SDS011;52486;51.098;13.770;2023-02-18T08:57:15;0.57;;;0.30;;
65751;SDS011;52486;51.098;13.770;2023-02-18T08:59:40;0.30;;;0.30;;
65751;SDS011;52486;51.098;13.770;2023-02-18T09:02:06;0.45;;;0.40;;
65751;SDS011;52486;51.098;13.770;2023-02-18T09:04:32;0.35;;;0.15;;
65751;SDS011;52486;51.098;13.770;2023-02-18T09:06:57;0.20;;;0.20;;
65751;SDS011;52486;51.098;13.770;2023-02-18T09:09:23;0.70;;;0.30;;
65751;SDS011;52486;51.098;13.770;2023-02-18T09:11:49;0.40;;;0.40;;
65751;SDS011;52486;51.098;13.770;2023-02-18T09:14:14;0.35;;;0.28;;
65751;SDS011;52486;51.098;13.770;2023-02-18T09:16:40;0.32;;;0.30;;
65751;SDS011;52486;51.098;13.770;2023-02-18T09:19:07;0.52;;;0.38;;
65751;SDS011;52486;51.098;13.770;2023-02-18T09:21:33;0.90;;;0.30;;
65751;SDS011;52486;51.098;13.770;2023-02-18T09:23:59;0.32;;;0.28;;
65751;SDS011;52486;51.098;13.770;2023-02-18T09:26:25;0.30;;;0.30;;
65751;SDS011;52486;51.098;13.770;2023-02-18T09:28:51;0.43;;;0.28;;
65751;SDS011;52486;51.098;13.770;2023-02-18T09:31:19;0.20;;;0.20;;
65751;SDS011;52486;51.098;13.770;2023-02-18T09:33:48;0.40;;;0.40;;
65751;SDS011;52486;51.098;13.770;2023-02-18T09:36:16;1.00;;;0.20;;
65751;SDS011;52486;51.098;13.770;2023-02-18T09:38:42;0.30;;;0.30;;
65751;SDS011;52486;51.098;13.770;2023-02-18T09:44:16;0.45;;;0.32;;
65751;SDS011;52486;51.098;13.770;2023-02-18T09:46:51;0.60;;;0.50;;
65751;SDS011;52486;51.098;13.770;2023-02-18T09:49:28;0.20;;;0.20;;
65751;SDS011;52486;51.098;13.770;2023-02-18T09:52:02;0.30;;;0.30;;
65751;SDS011;52486;51.098;13.770;2023-02-18T09:54:35;0.28;;;0.25;;
65751;SDS011;52486;51.098;13.770;2023-02-18T09:57:00;0.30;;;0.25;;
65751;SDS011;52486;51.098;13.770;2023-02-18T09:59:28;0.20;;;0.20;;
65751;SDS011;52486;51.098;13.770;2023-02-18T10:01:55;0.30;;;0.30;;
65751;SDS011;52486;51.098;13.770;2023-02-18T10:04:24;0.35;;;0.28;;
65751;SDS011;52486;51.098;13.770;2023-02-18T10:06:51;0.38;;;0.30;;
65751;SDS011;52486;51.098;13.770;2023-02-18T10:09:19;0.35;;;0.35;;
65751;SDS011;52486;51.098;13.770;2023-02-18T10:11:47;0.13;;;0.10;;
65751;SDS011;52486;51.098;13.770;2023-02-18T10:14:19;0.52;;;0.40;;
65751;SDS011;52486;51.098;13.770;2023-02-18T10:16:45;0.43;;;0.30;;
65751;SDS011;52486;51.098;13.770;2023-02-18T10:19:21;0.35;;;0.32;;
65751;SDS011;52486;51.098;13.770;2023-02-18T10:21:50;0.20;;;0.20;;
65751;SDS011;52486;51.098;13.770;2023-02-18T10:27:04;0.20;;;0.20;;
65751;SDS011;52486;51.098;13.770;2023-02-18T10:29:32;0.28;;;0.25;;
65751;SDS011;52486;51.098;13.770;2023-02-18T10:32:06;0.40;;;0.30;;
65751;SDS011;52486;51.098;13.770;2023-02-18T10:48:48;0.30;;;0.30;;
65751;SDS011;52486;51.098;13.770;2023-02-18T10:51:19;0.28;;;0.28;;
65751;SDS011;52486;51.098;13.770;2023-02-18T10:53:52;0.28;;;0.25;;
65751;SDS011;52486;51.098;13.770;2023-02-18T10:58:57;0.20;;;0.20;;
65751;SDS011;52486;51.098;13.770;2023-02-18T11:01:43;0.15;;;0.10;;
65751;SDS011;52486;51.098;13.770;2023-02-18T11:04:19;0.50;;;0.40;;
65751;SDS011;52486;51.098;13.770;2023-02-18T11:06:48;0.30;;;0.30;;
65751;SDS011;52486;51.098;13.770;2023-02-18T11:09:38;0.13;;;0.13;;
65751;SDS011;52486;51.098;13.770;2023-02-18T11:12:12;0.47;;;0.30;;
65751;SDS011;52486;51.098;13.770;2023-02-18T11:14:46;0.73;;;0.30;;
65751;SDS011;52486;51.098;13.770;2023-02-18T11:17:19;0.30;;;0.30;;
65751;SDS011;52486;51.098;13.770;2023-02-18T11:20:00;0.30;;;0.30;;
65751;SDS011;52486;51.098;13.770;2023-02-18T11:22:42;0.35;;;0.22;;
65751;SDS011;52486;51.098;13.770;2023-02-18T11:25:22;0.35;;;0.30;;
65751;SDS011;52486;51.098;13.770;2023-02-18T11:27:56;0.35;;;0.35;;
65751;SDS011;52486;51.098;13.770;2023-02-18T11:30:24;0.20;;;0.20;;
65751;SDS011;52486;51.098;13.770;2023-02-18T11:32:56;0.10;;;0.10;;
65751;SDS011;52486;51.098;13.770;2023-02-18T11:35:27;0.35;;;0.35;;
65751;SDS011;52486;51.098;13.770;2023-02-18T11:37:59;0.50;;;0.30;;
65751;SDS011;52486;51.098;13.770;2023-02-18T11:40:30;0.25;;;0.25;;
65751;SDS011;52486;51.098;13.770;2023-02-18T11:43:05;0.63;;;0.30;;
65751;SDS011;52486;51.098;13.770;2023-02-18T11:45:36;0.20;;;0.20;;
65751;SDS011;52486;51.098;13.770;2023-02-18T11:48:15;0.30;;;0.30;;
65751;SDS011;52486;51.098;13.770;2023-02-18T11:50:43;0.30;;;0.30;;
65751;SDS011;52486;51.098;13.770;2023-02-18T11:53:29;0.38;;;0.20;;
65751;SDS011;52486;51.098;13.770;2023-02-18T11:55:59;0.30;;;0.30;;
65751;SDS011;52486;51.098;13.770;2023-02-18T11:58:26;0.10;;;0.10;;
65751;SDS011;52486;51.098;13.770;2023-02-18T12:01:01;0.20;;;0.20;;
65751;SDS011;52486;51.098;13.770;2023-02-18T12:03:49;0.20;;;0.20;;
65751;SDS011;52486;51.098;13.770;2023-02-18T12:09:47;0.10;;;0.10;;
65751;SDS011;52486;51.098;13.770;2023-02-18T12:12:20;0.20;;;0.20;;
65751;SDS011;52486;51.098;13.770;2023-02-18T12:14:49;0.20;;;0.20;;
65751;SDS011;52486;51.098;13.770;2023-02-18T12:20:35;0.30;;;0.30;;
65751;SDS011;52486;51.098;13.770;2023-02-18T12:25:51;0.50;;;0.20;;
65751;SDS011;52486;51.098;13.770;2023-02-18T12:31:11;0.30;;;0.25;;
65751;SDS011;52486;51.098;13.770;2023-02-18T12:33:55;0.30;;;0.30;;
65751;SDS011;52486;51.098;13.770;2023-02-18T12:45:00;0.20;;;0.20;;
65751;SDS011;52486;51.098;13.770;2023-02-18T13:12:39;0.25;;;0.20;;
65751;SDS011;52486;51.098;13.770;2023-02-18T13:17:59;0.20;;;0.20;;
65751;SDS011;52486;51.098;13.770;2023-02-18T13:20:40;0.20;;;0.17;;
65751;SDS011;52486;51.098;13.770;2023-02-18T13:23:20;0.20;;;0.20;;
65751;SDS011;52486;51.098;13.770;2023-02-18T13:25:50;0.30;;;0.30;;
65751;SDS011;52486;51.098;13.770;2023-02-18T13:39:14;0.30;;;0.30;;
65751;SDS011;52486;51.098;13.770;2023-02-18T13:41:44;0.20;;;0.20;;
65751;SDS011;52486;51.098;13.770;2023-02-18T13:46:46;0.10;;;0.10;;
65751;SDS011;52486;51.098;13.770;2023-02-18T13:49:23;0.30;;;0.30;;
65751;SDS011;52486;51.098;13.770;2023-02-18T13:51:52;0.20;;;0.20;;
65751;SDS011;52486;51.098;13.770;2023-02-18T13:56:53;0.20;;;0.20;;
65751;SDS011;52486;51.098;13.770;2023-02-18T13:59:28;0.50;;;0.40;;
65751;SDS011;52486;51.098;13.770;2023-02-18T14:05:20;0.20;;;0.20;;
65751;SDS011;52486;51.098;13.770;2023-02-18T14:08:03;0.20;;;0.20;;
65751;SDS011;52486;51.098;13.770;2023-02-18T14:10:36;0.30;;;0.20;;
65751;SDS011;52486;51.098;13.770;2023-02-18T14:15:51;0.20;;;0.20;;
65751;SDS011;52486;51.098;13.770;2023-02-18T14:21:20;0.10;;;0.10;;
65751;SDS011;52486;51.098;13.770;2023-02-18T14:23:59;0.38;;;0.25;;
65751;SDS011;52486;51.098;13.770;2023-02-18T14:26:28;0.30;;;0.28;;
65751;SDS011;52486;51.098;13.770;2023-02-18T14:28:58;0.15;;;0.15;;
65751;SDS011;52486;51.098;13.770;2023-02-18T14:31:36;0.17;;;0.17;;
65751;SDS011;52486;51.098;13.770;2023-02-18T14:39:38;0.10;;;0.10;;
65751;SDS011;52486;51.098;13.770;2023-02-18T14:45:32;0.30;;;0.20;;
65751;SDS011;52486;51.098;13.770;2023-02-18T14:51:06;0.17;;;0.17;;
65751;SDS011;52486;51.098;13.770;2023-02-18T14:53:34;0.13;;;0.13;;
65751;SDS011;52486;51.098;13.770;2023-02-18T14:56:07;0.20;;;0.20;;
65751;SDS011;52486;51.098;13.770;2023-02-18T14:58:36;0.20;;;0.20;;
65751;SDS011;52486;51.098;13.770;2023-02-18T15:01:19;0.10;;;0.10;;
65751;SDS011;52486;51.098;13.770;2023-02-18T15:03:51;0.10;;;0.10;;
65751;SDS011;52486;51.098;13.770;2023-02-18T15:06:22;0.20;;;0.20;;
65751;SDS011;52486;51.098;13.770;2023-02-18T15:08:55;0.20;;;0.20;;
65751;SDS011;52486;51.098;13.770;2023-02-18T15:11:23;0.38;;;0.30;;
65751;SDS011;52486;51.098;13.770;2023-02-18T15:13:54;0.30;;;0.30;;
65751;SDS011;52486;51.098;13.770;2023-02-18T15:16:28;0.10;;;0.10;;
65751;SDS011;52486;51.098;13.770;2023-02-18T15:18:58;0.20;;;0.20;;
65751;SDS011;52486;51.098;13.770;2023-02-18T15:21:31;0.10;;;0.10;;
65751;SDS011;52486;51.098;13.770;2023-02-18T15:24:17;0.03;;;0.03;;
65751;SDS011;52486;51.098;13.770;2023-02-18T15:26:50;0.45;;;0.30;;
65751;SDS011;52486;51.098;13.770;2023-02-18T15:29:18;0.10;;;0.10;;
65751;SDS011;52486;51.098;13.770;2023-02-18T15:31:47;0.20;;;0.20;;
65751;SDS011;52486;51.098;13.770;2023-02-18T15:34:20;0.17;;;0.17;;
65751;SDS011;52486;51.098;13.770;2023-02-18T15:36:53;0.20;;;0.20;;
65751;SDS011;52486;51.098;13.770;2023-02-18T15:39:26;0.30;;;0.13;;
65751;SDS011;52486;51.098;13.770;2023-02-18T15:41:53;0.10;;;0.10;;
65751;SDS011;52486;51.098;13.770;2023-02-18T15:44:22;0.45;;;0.20;;
65751;SDS011;52486;51.098;13.770;2023-02-18T15:46:53;0.57;;;0.20;;
65751;SDS011;52486;51.098;13.770;2023-02-18T15:49:20;0.10;;;0.10;;
65751;SDS011;52486;51.098;13.770;2023-02-18T15:51:48;0.20;;;0.20;;
65751;SDS011;52486;51.098;13.770;2023-02-18T15:54:19;0.25;;;0.25;;
65751;SDS011;52486;51.098;13.770;2023-02-18T15:56:51;0.40;;;0.20;;
65751;SDS011;52486;51.098;13.770;2023-02-18T15:59:26;0.20;;;0.20;;
65751;SDS011;52486;51.098;13.770;2023-02-18T16:04:32;0.10;;;0.10;;
65751;SDS011;52486;51.098;13.770;2023-02-18T16:07:03;0.10;;;0.10;;
65751;SDS011;52486;51.098;13.770;2023-02-18T16:09:43;0.10;;;0.10;;
65751;SDS011;52486;51.098;13.770;2023-02-18T16:12:26;0.22;;;0.13;;
65751;SDS011;52486;51.098;13.770;2023-02-18T16:14:54;0.30;;;0.30;;
65751;SDS011;52486;51.098;13.770;2023-02-18T16:17:22;0.20;;;0.20;;
65751;SDS011;52486;51.098;13.770;2023-02-18T16:20:14;0.13;;;0.13;;
65751;SDS011;52486;51.098;13.770;2023-02-18T16:23:07;0.20;;;0.20;;
65751;SDS011;52486;51.098;13.770;2023-02-18T16:28:09;0.20;;;0.20;;
65751;SDS011;52486;51.098;13.770;2023-02-18T16:30:41;0.10;;;0.10;;
65751;SDS011;52486;51.098;13.770;2023-02-18T16:33:09;0.20;;;0.20;;
65751;SDS011;52486;51.098;13.770;2023-02-18T16:35:36;0.10;;;0.10;;
65751;SDS011;52486;51.098;13.770;2023-02-18T16:38:01;0.10;;;0.10;;
65751;SDS011;52486;51.098;13.770;2023-02-18T16:43:02;2.03;;;0.10;;
65751;SDS011;52486;51.098;13.770;2023-02-18T16:45:35;0.20;;;0.20;;
65751;SDS011;52486;51.098;13.770;2023-02-18T16:48:04;0.10;;;0.10;;
65751;SDS011;52486;51.098;13.770;2023-02-18T16:50:30;0.10;;;0.10;;
65751;SDS011;52486;51.098;13.770;2023-02-18T16:52:57;0.00;;;0.00;;
65751;SDS011;52486;51.098;13.770;2023-02-18T16:55:24;0.10;;;0.10;;
65751;SDS011;52486;51.098;13.770;2023-02-18T16:57:52;0.25;;;0.20;;
65751;SDS011;52486;51.098;13.770;2023-02-18T17:00:18;0.10;;;0.10;;
65751;SDS011;52486;51.098;13.770;2023-02-18T17:02:44;0.17;;;0.17;;
65751;SDS011;52486;51.098;13.770;2023-02-18T17:05:16;0.17;;;0.17;;
65751;SDS011;52486;51.098;13.770;2023-02-18T17:07:47;0.20;;;0.20;;
65751;SDS011;52486;51.098;13.770;2023-02-18T17:10:13;0.20;;;0.20;;
65751;SDS011;52486;51.098;13.770;2023-02-18T17:12:39;0.13;;;0.13;;
65751;SDS011;52486;51.098;13.770;2023-02-18T17:15:22;0.10;;;0.10;;
65751;SDS011;52486;51.098;13.770;2023-02-18T17:17:52;0.20;;;0.20;;
65751;SDS011;52486;51.098;13.770;2023-02-18T17:20:18;0.20;;;0.20;;